AirNav   Pilot Hours Calculator
 
 1346 users online  

20KS Airpark Estates Airport
Augusta, Kansas, USA

GOING TO AUGUSTA?


FAA INFORMATION EFFECTIVE 22 APRIL 2021

Location

FAA Identifier: 20KS
Lat/Long: 37-40-33.0650N 096-53-07.1160W
37-40.551083N 096-53.118600W
37.6758514,-96.8853100
(estimated)
Elevation: 1340 ft. / 408 m (estimated)
Variation: 06E (1985)
From city: 4 miles E of AUGUSTA, KS
Time zone: UTC -5 (UTC -6 during Standard Time)
Zip code: 67010

Airport Operations

Airport use: Private use. Permission required prior to landing
Activation date: 12/1982
Control tower: no
ARTCC: KANSAS CITY CENTER
FSS: WICHITA FLIGHT SERVICE STATION
Attendance: UNATNDD
Wind indicator: yes
Segmented circle: no

Airport Communications

WX AWOS-3P at EQA (7 nm NE): 120.875 (316-322-8095)
WX AWOS-3PT at 3AU (9 nm W): 124.175 (316-733-6696)
WX AWOS-3 at 1K1 (12 nm NW): 118.3 (316-530-6004)
WX AWOS-3PT at BEC (16 nm W): 119.45 (316-515-7116)
WX ASOS at AAO (17 nm W): 134.025 (316-636-2541)

Nearby radio navigation aids

VOR radial/distance  VOR name  Freq  Var
ICTr090/33.4WICHITA VORTAC113.8007E

 
NDB name  Hdg/Dist  Freq  Var  ID
NEWTON136/29.728106EEWK . .-- -.-

Airport Services

Runway Information

Runway 17/35

Dimensions: 2340 x 50 ft. / 713 x 15 m
Surface: turf
RUNWAY 17  RUNWAY 35
Traffic pattern: leftleft
Obstructions: 35 ft. pline, 100 ft. from runway4 ft. fence

Airport Ownership and Management from official FAA records

Ownership: Privately-owned
Owner: HARRY & PHYLLIS THOMAS JR
2349 SW 100TH ST
AUGUSTA, KS 67010
Phone 316-775-6846
Manager: HARRY & PHYLLIS THOMAS JR
2349 SW 100TH ST
AUGUSTA, KS 67010
Phone 316-775-6846

Airport Operational Statistics

Aircraft based on the field: 3
Single engine airplanes: 3
    

Additional Remarks

FOR CD CTC WICHITA APCH AT 316-350-1520.

Instrument Procedures

There are no published instrument procedures at 20KS.

Some nearby airports with instrument procedures:

KEQA - El Dorado/Capt Jack Thomas Memorial Airport (7 nm NE)
3AU - Augusta Municipal Airport (9 nm W)
1K1 - Lloyd Stearman Field Airport (12 nm NW)
KBEC - Beech Factory Airport (16 nm W)
KAAO - Colonel James Jabara Airport (17 nm W)
KCEA - Cessna Aircraft Field Airport (17 nm W)
KIAB - Mc Connell Air Force Base (18 nm W)
 
Loc | Ops | Rwys | IFR | FBO | Links
Com | Nav | Svcs | Stats | Notes
Area around 20KS (Airpark Estates Airport)
 
Road maps at: MapQuest Bing Google
 
Aerial photo
No photo
 
Sectional chart

 
Airport distance calculator
Flying to Airpark Estates Airport? Find the distance to fly.

From to 20KS

Sunrise and sunset
Times for 17-May-2021
 Local
(UTC-5)
 Zulu
(UTC)
Morning civil twilight05:4810:48
Sunrise06:1711:17
Sunset20:3101:31
Evening civil twilight21:0002:00

Current date and time
Zulu (UTC)  17-May-2021 22:24:03
Local (UTC-5)  17-May-2021 17:24:03
 
METAR
KEQA 
7nm NE 
172155Z AUTO 02004KT 10SM SCT029 SCT036 OVC042 23/16 A2989 RMK AO2
K3AU 
9nm W 
172155Z AUTO 01007KT 10SM SCT029 OVC046 21/16 A2990 RMK AO2
K1K1 
12nm NW 
172155Z AUTO 03004KT 10SM SCT029 OVC047 22/16 A2990 RMK AO2 T02150156
KBEC 
16nm W 
172155Z AUTO 02006KT 10SM OVC049 22/16 A2990 RMK AO2 T02170158
KAAO 
16nm W 
172154Z AUTO 02005KT 10SM OVC048 23/16 A2989 RMK AO2 SLP113 T02280156
KIAB 
18nm W 
172056Z AUTO 03008KT 10SM SCT030 OVC045 24/16 A2990 RMK AO2 SLP119 T02400160 58006
TAF
KIAB 
18nm W 
171800Z 1718/1824 06012G18KT 9999 BKN027 BKN120 QNH2990INS BECMG 1802/1803 07009KT 9999 BKN020 OVC150 QNH2986INS BECMG 1805/1806 08007KT 9999 BKN012 OVC200 QNH2986INS BECMG 1808/1809 19010G20KT 8000 -TSRA BKN008 OVC025CB QNH2990INS BECMG 1811/1812 09009KT 9999 NSW BKN012 OVC100 QNH2988INS BECMG 1815/1816 12009KT 8000 -SHRA VCTS BKN015CB OVC100 QNH2987INS TEMPO 1816/1821 18020G30KT 4800 TSRAGR OVC010CB BECMG 1820/1821 13009KT 9999 NSW FEW030 SCT120 BKN250 QNH2982INS TX25/1720Z TN16/1811Z
NOTAMs
Click for the latest NOTAMs
NOTAMs are issued by the DoD/FAA and will open in a separate window not controlled by AirNav.

 

 
 

Would you like to see your business listed on this page?

 If your business provides an interesting product or service to pilots, flight crews, aircraft, or users of the Airpark Estates Airport, you should consider listing it here.  To start the listing process, click on the button below
 
Add a business
 

Other Pages about Airpark Estates Airport

Update a link
 
Copyright © AirNav, LLC. All rights reserved. Privacy Policy  Contact